sensor_id;sensor_type;location;lat;lon;timestamp;P1;durP1;ratioP1;P2;durP2;ratioP2
11887;SDS011;6003;42.756;23.130;2022-10-13T00:02:26;20.20;;;9.63;;
11887;SDS011;6003;42.756;23.130;2022-10-13T00:04:52;18.20;;;10.30;;
11887;SDS011;6003;42.756;23.130;2022-10-13T00:07:19;17.97;;;10.30;;
11887;SDS011;6003;42.756;23.130;2022-10-13T00:09:46;15.07;;;10.37;;
11887;SDS011;6003;42.756;23.130;2022-10-13T00:12:15;16.47;;;10.00;;
11887;SDS011;6003;42.756;23.130;2022-10-13T00:14:41;17.53;;;9.93;;
11887;SDS011;6003;42.756;23.130;2022-10-13T00:17:25;20.10;;;11.03;;
11887;SDS011;6003;42.756;23.130;2022-10-13T00:19:52;20.03;;;9.90;;
11887;SDS011;6003;42.756;23.130;2022-10-13T00:22:18;14.63;;;9.50;;
11887;SDS011;6003;42.756;23.130;2022-10-13T00:24:49;12.70;;;8.20;;
11887;SDS011;6003;42.756;23.130;2022-10-13T00:27:17;16.80;;;9.93;;
11887;SDS011;6003;42.756;23.130;2022-10-13T00:29:45;11.87;;;8.00;;
11887;SDS011;6003;42.756;23.130;2022-10-13T00:32:11;16.77;;;8.47;;
11887;SDS011;6003;42.756;23.130;2022-10-13T00:34:39;12.80;;;8.47;;
11887;SDS011;6003;42.756;23.130;2022-10-13T00:37:06;11.23;;;8.13;;
11887;SDS011;6003;42.756;23.130;2022-10-13T00:39:33;13.00;;;8.30;;
11887;SDS011;6003;42.756;23.130;2022-10-13T00:42:00;14.43;;;8.77;;
11887;SDS011;6003;42.756;23.130;2022-10-13T00:50:22;12.67;;;7.50;;
11887;SDS011;6003;42.756;23.130;2022-10-13T00:52:53;14.87;;;8.37;;
11887;SDS011;6003;42.756;23.130;2022-10-13T00:55:22;11.53;;;8.30;;
11887;SDS011;6003;42.756;23.130;2022-10-13T00:57:53;12.73;;;8.43;;
11887;SDS011;6003;42.756;23.130;2022-10-13T01:00:24;14.07;;;8.40;;
11887;SDS011;6003;42.756;23.130;2022-10-13T01:02:51;12.30;;;7.90;;
11887;SDS011;6003;42.756;23.130;2022-10-13T01:05:18;14.67;;;8.80;;
11887;SDS011;6003;42.756;23.130;2022-10-13T01:07:47;18.87;;;9.57;;
11887;SDS011;6003;42.756;23.130;2022-10-13T01:10:15;21.10;;;10.40;;
11887;SDS011;6003;42.756;23.130;2022-10-13T01:12:51;16.83;;;9.50;;
11887;SDS011;6003;42.756;23.130;2022-10-13T01:15:29;15.07;;;8.67;;
11887;SDS011;6003;42.756;23.130;2022-10-13T01:18:00;14.10;;;8.83;;
11887;SDS011;6003;42.756;23.130;2022-10-13T01:20:49;14.17;;;8.93;;
11887;SDS011;6003;42.756;23.130;2022-10-13T01:23:25;12.93;;;8.67;;
11887;SDS011;6003;42.756;23.130;2022-10-13T01:26:08;11.90;;;8.27;;
11887;SDS011;6003;42.756;23.130;2022-10-13T01:28:56;13.33;;;8.67;;
11887;SDS011;6003;42.756;23.130;2022-10-13T01:31:40;18.13;;;10.13;;
11887;SDS011;6003;42.756;23.130;2022-10-13T01:34:13;12.70;;;8.27;;
11887;SDS011;6003;42.756;23.130;2022-10-13T01:36:46;14.37;;;8.83;;
11887;SDS011;6003;42.756;23.130;2022-10-13T01:39:22;15.67;;;8.57;;
11887;SDS011;6003;42.756;23.130;2022-10-13T01:41:54;15.23;;;9.37;;
11887;SDS011;6003;42.756;23.130;2022-10-13T01:44:30;11.67;;;8.00;;
11887;SDS011;6003;42.756;23.130;2022-10-13T01:47:02;11.23;;;7.70;;
11887;SDS011;6003;42.756;23.130;2022-10-13T01:49:33;14.13;;;8.97;;
11887;SDS011;6003;42.756;23.130;2022-10-13T01:52:02;12.07;;;7.77;;
11887;SDS011;6003;42.756;23.130;2022-10-13T01:54:32;13.10;;;7.70;;
11887;SDS011;6003;42.756;23.130;2022-10-13T01:56:59;13.40;;;8.37;;
11887;SDS011;6003;42.756;23.130;2022-10-13T01:59:26;16.33;;;8.77;;
11887;SDS011;6003;42.756;23.130;2022-10-13T02:02:00;13.67;;;9.23;;
11887;SDS011;6003;42.756;23.130;2022-10-13T02:04:36;14.23;;;9.37;;
11887;SDS011;6003;42.756;23.130;2022-10-13T02:07:16;13.80;;;8.97;;
11887;SDS011;6003;42.756;23.130;2022-10-13T02:09:48;12.20;;;8.57;;
11887;SDS011;6003;42.756;23.130;2022-10-13T02:12:30;11.03;;;8.23;;
11887;SDS011;6003;42.756;23.130;2022-10-13T02:15:00;12.63;;;8.10;;
11887;SDS011;6003;42.756;23.130;2022-10-13T02:17:30;15.13;;;8.23;;
11887;SDS011;6003;42.756;23.130;2022-10-13T02:19:57;16.17;;;8.63;;
11887;SDS011;6003;42.756;23.130;2022-10-13T02:22:26;14.33;;;9.73;;
11887;SDS011;6003;42.756;23.130;2022-10-13T02:24:57;17.33;;;8.40;;
11887;SDS011;6003;42.756;23.130;2022-10-13T02:30:46;12.23;;;8.23;;
11887;SDS011;6003;42.756;23.130;2022-10-13T02:33:14;14.30;;;9.07;;
11887;SDS011;6003;42.756;23.130;2022-10-13T02:35:41;13.83;;;8.40;;
11887;SDS011;6003;42.756;23.130;2022-10-13T02:38:08;13.27;;;8.47;;
11887;SDS011;6003;42.756;23.130;2022-10-13T02:40:36;13.77;;;8.70;;
11887;SDS011;6003;42.756;23.130;2022-10-13T02:43:03;11.20;;;8.43;;
11887;SDS011;6003;42.756;23.130;2022-10-13T02:45:31;12.20;;;7.63;;
11887;SDS011;6003;42.756;23.130;2022-10-13T02:47:57;12.37;;;7.87;;
11887;SDS011;6003;42.756;23.130;2022-10-13T02:50:26;14.37;;;7.67;;
11887;SDS011;6003;42.756;23.130;2022-10-13T02:52:53;15.40;;;8.47;;
11887;SDS011;6003;42.756;23.130;2022-10-13T02:55:20;21.37;;;8.47;;
11887;SDS011;6003;42.756;23.130;2022-10-13T03:00:23;17.30;;;7.07;;
11887;SDS011;6003;42.756;23.130;2022-10-13T03:02:50;13.43;;;6.77;;
11887;SDS011;6003;42.756;23.130;2022-10-13T03:05:18;12.03;;;6.33;;
11887;SDS011;6003;42.756;23.130;2022-10-13T03:07:46;14.00;;;6.43;;
11887;SDS011;6003;42.756;23.130;2022-10-13T03:10:14;11.23;;;6.23;;
11887;SDS011;6003;42.756;23.130;2022-10-13T03:12:40;17.90;;;5.93;;
11887;SDS011;6003;42.756;23.130;2022-10-13T03:15:08;13.53;;;5.60;;
11887;SDS011;6003;42.756;23.130;2022-10-13T03:17:34;11.10;;;5.87;;
11887;SDS011;6003;42.756;23.130;2022-10-13T03:20:01;6.57;;;5.40;;
11887;SDS011;6003;42.756;23.130;2022-10-13T03:22:30;7.10;;;5.20;;
11887;SDS011;6003;42.756;23.130;2022-10-13T03:24:58;7.97;;;4.63;;
11887;SDS011;6003;42.756;23.130;2022-10-13T03:30:26;6.53;;;5.37;;
11887;SDS011;6003;42.756;23.130;2022-10-13T03:32:53;9.83;;;5.73;;
11887;SDS011;6003;42.756;23.130;2022-10-13T03:35:20;8.93;;;6.07;;
11887;SDS011;6003;42.756;23.130;2022-10-13T03:37:47;8.07;;;5.90;;
11887;SDS011;6003;42.756;23.130;2022-10-13T03:40:15;11.33;;;7.17;;
11887;SDS011;6003;42.756;23.130;2022-10-13T03:42:42;12.13;;;6.83;;
11887;SDS011;6003;42.756;23.130;2022-10-13T03:45:09;8.70;;;6.43;;
11887;SDS011;6003;42.756;23.130;2022-10-13T03:47:37;9.30;;;6.10;;
11887;SDS011;6003;42.756;23.130;2022-10-13T03:50:04;10.30;;;6.80;;
11887;SDS011;6003;42.756;23.130;2022-10-13T03:52:31;9.17;;;6.53;;
11887;SDS011;6003;42.756;23.130;2022-10-13T03:54:58;10.83;;;6.80;;
11887;SDS011;6003;42.756;23.130;2022-10-13T03:57:27;9.77;;;7.30;;
11887;SDS011;6003;42.756;23.130;2022-10-13T03:59:54;12.37;;;7.50;;
11887;SDS011;6003;42.756;23.130;2022-10-13T04:02:21;9.60;;;7.03;;
11887;SDS011;6003;42.756;23.130;2022-10-13T04:04:48;12.63;;;6.57;;
11887;SDS011;6003;42.756;23.130;2022-10-13T04:07:15;11.50;;;6.97;;
11887;SDS011;6003;42.756;23.130;2022-10-13T04:09:42;13.07;;;7.63;;
11887;SDS011;6003;42.756;23.130;2022-10-13T04:12:09;10.07;;;6.67;;
11887;SDS011;6003;42.756;23.130;2022-10-13T04:14:37;11.97;;;7.13;;
11887;SDS011;6003;42.756;23.130;2022-10-13T04:17:04;10.93;;;6.30;;
11887;SDS011;6003;42.756;23.130;2022-10-13T04:19:31;10.57;;;7.17;;
11887;SDS011;6003;42.756;23.130;2022-10-13T04:21:58;13.80;;;7.73;;
11887;SDS011;6003;42.756;23.130;2022-10-13T04:24:25;10.73;;;6.83;;
11887;SDS011;6003;42.756;23.130;2022-10-13T04:26:51;13.00;;;8.20;;
11887;SDS011;6003;42.756;23.130;2022-10-13T04:29:18;16.77;;;9.47;;
11887;SDS011;6003;42.756;23.130;2022-10-13T04:31:47;13.03;;;8.00;;
11887;SDS011;6003;42.756;23.130;2022-10-13T04:34:14;11.67;;;7.27;;
11887;SDS011;6003;42.756;23.130;2022-10-13T04:36:41;13.60;;;8.93;;
11887;SDS011;6003;42.756;23.130;2022-10-13T04:39:08;12.57;;;8.03;;
11887;SDS011;6003;42.756;23.130;2022-10-13T04:41:34;10.70;;;7.27;;
11887;SDS011;6003;42.756;23.130;2022-10-13T04:44:01;12.67;;;7.73;;
11887;SDS011;6003;42.756;23.130;2022-10-13T04:46:28;10.87;;;7.03;;
11887;SDS011;6003;42.756;23.130;2022-10-13T04:48:56;11.63;;;7.67;;
11887;SDS011;6003;42.756;23.130;2022-10-13T04:51:24;11.93;;;6.97;;
11887;SDS011;6003;42.756;23.130;2022-10-13T04:53:55;9.80;;;7.00;;
11887;SDS011;6003;42.756;23.130;2022-10-13T04:56:23;9.73;;;6.00;;
11887;SDS011;6003;42.756;23.130;2022-10-13T04:58:51;10.53;;;6.70;;
11887;SDS011;6003;42.756;23.130;2022-10-13T05:01:18;12.60;;;7.17;;
11887;SDS011;6003;42.756;23.130;2022-10-13T05:03:49;9.30;;;6.27;;
11887;SDS011;6003;42.756;23.130;2022-10-13T05:06:19;11.43;;;7.37;;
11887;SDS011;6003;42.756;23.130;2022-10-13T05:08:48;11.20;;;7.00;;
11887;SDS011;6003;42.756;23.130;2022-10-13T05:11:15;11.93;;;7.17;;
11887;SDS011;6003;42.756;23.130;2022-10-13T05:13:44;10.70;;;7.17;;
11887;SDS011;6003;42.756;23.130;2022-10-13T05:16:12;11.97;;;7.70;;
11887;SDS011;6003;42.756;23.130;2022-10-13T05:18:40;12.13;;;7.23;;
11887;SDS011;6003;42.756;23.130;2022-10-13T05:21:07;10.23;;;7.27;;
11887;SDS011;6003;42.756;23.130;2022-10-13T05:23:36;10.47;;;6.57;;
11887;SDS011;6003;42.756;23.130;2022-10-13T05:26:04;12.63;;;8.20;;
11887;SDS011;6003;42.756;23.130;2022-10-13T05:28:33;11.67;;;6.90;;
11887;SDS011;6003;42.756;23.130;2022-10-13T05:31:07;11.60;;;7.57;;
11887;SDS011;6003;42.756;23.130;2022-10-13T05:33:35;12.90;;;6.97;;
11887;SDS011;6003;42.756;23.130;2022-10-13T05:36:03;11.07;;;7.17;;
11887;SDS011;6003;42.756;23.130;2022-10-13T05:38:31;12.87;;;8.60;;
11887;SDS011;6003;42.756;23.130;2022-10-13T05:41:02;13.80;;;8.73;;
11887;SDS011;6003;42.756;23.130;2022-10-13T05:43:30;12.93;;;8.03;;
11887;SDS011;6003;42.756;23.130;2022-10-13T05:45:57;11.60;;;7.03;;
11887;SDS011;6003;42.756;23.130;2022-10-13T05:48:24;12.40;;;7.93;;
11887;SDS011;6003;42.756;23.130;2022-10-13T05:50:51;13.10;;;7.90;;
11887;SDS011;6003;42.756;23.130;2022-10-13T05:53:18;15.23;;;8.57;;
11887;SDS011;6003;42.756;23.130;2022-10-13T05:55:46;13.57;;;9.17;;
11887;SDS011;6003;42.756;23.130;2022-10-13T05:58:16;13.67;;;9.50;;
11887;SDS011;6003;42.756;23.130;2022-10-13T06:00:43;13.07;;;8.40;;
11887;SDS011;6003;42.756;23.130;2022-10-13T06:03:11;14.97;;;8.77;;
11887;SDS011;6003;42.756;23.130;2022-10-13T06:05:41;11.50;;;8.23;;
11887;SDS011;6003;42.756;23.130;2022-10-13T06:08:11;12.37;;;8.70;;
11887;SDS011;6003;42.756;23.130;2022-10-13T06:10:38;12.60;;;8.77;;
11887;SDS011;6003;42.756;23.130;2022-10-13T06:13:06;13.87;;;8.70;;
11887;SDS011;6003;42.756;23.130;2022-10-13T06:15:35;13.93;;;8.53;;
11887;SDS011;6003;42.756;23.130;2022-10-13T06:18:05;14.60;;;8.37;;
11887;SDS011;6003;42.756;23.130;2022-10-13T06:20:33;13.00;;;9.10;;
11887;SDS011;6003;42.756;23.130;2022-10-13T06:23:00;9.90;;;7.33;;
11887;SDS011;6003;42.756;23.130;2022-10-13T06:25:27;14.90;;;9.00;;
11887;SDS011;6003;42.756;23.130;2022-10-13T06:27:55;10.97;;;7.80;;
11887;SDS011;6003;42.756;23.130;2022-10-13T06:30:22;10.70;;;7.27;;
11887;SDS011;6003;42.756;23.130;2022-10-13T06:32:50;11.07;;;8.07;;
11887;SDS011;6003;42.756;23.130;2022-10-13T06:35:19;13.77;;;8.63;;
11887;SDS011;6003;42.756;23.130;2022-10-13T06:37:53;10.53;;;8.07;;
11887;SDS011;6003;42.756;23.130;2022-10-13T06:40:20;11.10;;;7.97;;
11887;SDS011;6003;42.756;23.130;2022-10-13T06:42:49;10.83;;;8.27;;
11887;SDS011;6003;42.756;23.130;2022-10-13T06:45:16;11.70;;;7.73;;
11887;SDS011;6003;42.756;23.130;2022-10-13T06:47:43;13.67;;;7.90;;
11887;SDS011;6003;42.756;23.130;2022-10-13T06:50:12;11.67;;;8.23;;
11887;SDS011;6003;42.756;23.130;2022-10-13T06:52:39;13.53;;;8.80;;
11887;SDS011;6003;42.756;23.130;2022-10-13T06:55:07;10.23;;;8.40;;
11887;SDS011;6003;42.756;23.130;2022-10-13T06:57:34;11.80;;;8.10;;
11887;SDS011;6003;42.756;23.130;2022-10-13T07:00:01;11.37;;;7.63;;
11887;SDS011;6003;42.756;23.130;2022-10-13T07:02:29;11.00;;;8.33;;
11887;SDS011;6003;42.756;23.130;2022-10-13T07:04:56;10.63;;;7.57;;
11887;SDS011;6003;42.756;23.130;2022-10-13T07:07:24;14.47;;;9.10;;
11887;SDS011;6003;42.756;23.130;2022-10-13T07:09:51;12.23;;;8.23;;
11887;SDS011;6003;42.756;23.130;2022-10-13T07:12:18;15.33;;;9.40;;
11887;SDS011;6003;42.756;23.130;2022-10-13T07:14:46;11.43;;;8.53;;
11887;SDS011;6003;42.756;23.130;2022-10-13T07:17:12;12.53;;;8.77;;
11887;SDS011;6003;42.756;23.130;2022-10-13T07:19:39;10.70;;;7.60;;
11887;SDS011;6003;42.756;23.130;2022-10-13T07:22:06;14.10;;;9.07;;
11887;SDS011;6003;42.756;23.130;2022-10-13T07:24:34;15.10;;;9.10;;
11887;SDS011;6003;42.756;23.130;2022-10-13T07:27:01;14.00;;;8.40;;
11887;SDS011;6003;42.756;23.130;2022-10-13T07:29:28;11.00;;;7.97;;
11887;SDS011;6003;42.756;23.130;2022-10-13T07:31:55;12.50;;;8.47;;
11887;SDS011;6003;42.756;23.130;2022-10-13T07:34:22;10.77;;;7.97;;
11887;SDS011;6003;42.756;23.130;2022-10-13T07:36:49;11.47;;;7.50;;
11887;SDS011;6003;42.756;23.130;2022-10-13T07:39:16;14.13;;;8.17;;
11887;SDS011;6003;42.756;23.130;2022-10-13T07:41:45;9.10;;;7.83;;
11887;SDS011;6003;42.756;23.130;2022-10-13T07:44:11;11.60;;;8.43;;
11887;SDS011;6003;42.756;23.130;2022-10-13T07:46:38;9.53;;;7.50;;
11887;SDS011;6003;42.756;23.130;2022-10-13T07:49:05;10.63;;;7.23;;
11887;SDS011;6003;42.756;23.130;2022-10-13T07:51:32;11.13;;;7.37;;
11887;SDS011;6003;42.756;23.130;2022-10-13T07:53:59;8.30;;;6.83;;
11887;SDS011;6003;42.756;23.130;2022-10-13T07:56:26;10.53;;;7.73;;
11887;SDS011;6003;42.756;23.130;2022-10-13T07:58:54;8.37;;;6.90;;
11887;SDS011;6003;42.756;23.130;2022-10-13T08:01:21;8.87;;;6.83;;
11887;SDS011;6003;42.756;23.130;2022-10-13T08:03:48;9.13;;;7.10;;
11887;SDS011;6003;42.756;23.130;2022-10-13T08:06:15;9.27;;;6.80;;
11887;SDS011;6003;42.756;23.130;2022-10-13T08:08:42;10.87;;;7.57;;
11887;SDS011;6003;42.756;23.130;2022-10-13T08:11:10;10.80;;;7.70;;
11887;SDS011;6003;42.756;23.130;2022-10-13T08:13:37;10.03;;;6.97;;
11887;SDS011;6003;42.756;23.130;2022-10-13T08:16:06;11.80;;;7.80;;
11887;SDS011;6003;42.756;23.130;2022-10-13T08:18:33;10.10;;;7.33;;
11887;SDS011;6003;42.756;23.130;2022-10-13T08:21:00;8.33;;;6.93;;
11887;SDS011;6003;42.756;23.130;2022-10-13T08:23:29;10.47;;;7.10;;
11887;SDS011;6003;42.756;23.130;2022-10-13T08:25:56;12.20;;;8.10;;
11887;SDS011;6003;42.756;23.130;2022-10-13T08:28:24;14.60;;;8.77;;
11887;SDS011;6003;42.756;23.130;2022-10-13T08:30:52;11.77;;;7.33;;
11887;SDS011;6003;42.756;23.130;2022-10-13T08:33:23;12.00;;;7.20;;
11887;SDS011;6003;42.756;23.130;2022-10-13T08:35:50;8.83;;;6.67;;
11887;SDS011;6003;42.756;23.130;2022-10-13T08:38:17;9.50;;;6.50;;
11887;SDS011;6003;42.756;23.130;2022-10-13T08:40:45;7.20;;;6.50;;
11887;SDS011;6003;42.756;23.130;2022-10-13T08:43:13;10.47;;;7.17;;
11887;SDS011;6003;42.756;23.130;2022-10-13T08:45:42;9.63;;;6.97;;
11887;SDS011;6003;42.756;23.130;2022-10-13T08:51:04;8.60;;;6.73;;
11887;SDS011;6003;42.756;23.130;2022-10-13T08:53:33;10.20;;;6.47;;
11887;SDS011;6003;42.756;23.130;2022-10-13T08:56:06;10.20;;;6.60;;
11887;SDS011;6003;42.756;23.130;2022-10-13T08:58:35;7.77;;;6.23;;
11887;SDS011;6003;42.756;23.130;2022-10-13T09:01:10;8.77;;;6.17;;
11887;SDS011;6003;42.756;23.130;2022-10-13T09:03:42;7.87;;;6.43;;
11887;SDS011;6003;42.756;23.130;2022-10-13T09:06:14;10.53;;;6.80;;
11887;SDS011;6003;42.756;23.130;2022-10-13T09:08:47;10.70;;;6.53;;
11887;SDS011;6003;42.756;23.130;2022-10-13T09:11:18;6.97;;;5.70;;
11887;SDS011;6003;42.756;23.130;2022-10-13T09:13:45;13.83;;;6.80;;
11887;SDS011;6003;42.756;23.130;2022-10-13T09:16:12;8.03;;;5.57;;
11887;SDS011;6003;42.756;23.130;2022-10-13T09:18:40;7.17;;;6.07;;
11887;SDS011;6003;42.756;23.130;2022-10-13T09:21:09;7.07;;;5.93;;
11887;SDS011;6003;42.756;23.130;2022-10-13T09:23:37;8.47;;;5.87;;
11887;SDS011;6003;42.756;23.130;2022-10-13T09:26:06;5.57;;;5.03;;
11887;SDS011;6003;42.756;23.130;2022-10-13T09:28:34;6.97;;;5.60;;
11887;SDS011;6003;42.756;23.130;2022-10-13T09:31:02;7.93;;;5.17;;
11887;SDS011;6003;42.756;23.130;2022-10-13T09:33:33;6.50;;;5.53;;
11887;SDS011;6003;42.756;23.130;2022-10-13T09:36:07;7.50;;;5.17;;
11887;SDS011;6003;42.756;23.130;2022-10-13T09:38:39;5.87;;;5.20;;
11887;SDS011;6003;42.756;23.130;2022-10-13T09:43:59;6.13;;;5.27;;
11887;SDS011;6003;42.756;23.130;2022-10-13T09:46:37;6.23;;;5.40;;
11887;SDS011;6003;42.756;23.130;2022-10-13T09:49:20;9.63;;;5.80;;
11887;SDS011;6003;42.756;23.130;2022-10-13T09:51:59;6.67;;;5.37;;
11887;SDS011;6003;42.756;23.130;2022-10-13T09:54:33;6.63;;;5.10;;
11887;SDS011;6003;42.756;23.130;2022-10-13T09:57:04;6.70;;;4.77;;
11887;SDS011;6003;42.756;23.130;2022-10-13T09:59:38;6.03;;;4.37;;
11887;SDS011;6003;42.756;23.130;2022-10-13T10:02:13;4.93;;;4.43;;
11887;SDS011;6003;42.756;23.130;2022-10-13T10:04:45;5.23;;;3.77;;
11887;SDS011;6003;42.756;23.130;2022-10-13T10:07:14;6.17;;;4.10;;
11887;SDS011;6003;42.756;23.130;2022-10-13T10:09:46;6.20;;;4.50;;
11887;SDS011;6003;42.756;23.130;2022-10-13T10:12:17;5.97;;;4.33;;
11887;SDS011;6003;42.756;23.130;2022-10-13T10:14:46;7.93;;;4.97;;
11887;SDS011;6003;42.756;23.130;2022-10-13T10:20:14;4.83;;;4.43;;
11887;SDS011;6003;42.756;23.130;2022-10-13T10:22:57;4.57;;;4.17;;
11887;SDS011;6003;42.756;23.130;2022-10-13T10:25:31;5.40;;;4.90;;
11887;SDS011;6003;42.756;23.130;2022-10-13T10:28:15;5.60;;;5.07;;
11887;SDS011;6003;42.756;23.130;2022-10-13T10:30:54;4.97;;;4.50;;
11887;SDS011;6003;42.756;23.130;2022-10-13T10:33:29;5.13;;;4.20;;
11887;SDS011;6003;42.756;23.130;2022-10-13T10:36:07;5.53;;;4.50;;
11887;SDS011;6003;42.756;23.130;2022-10-13T10:38:43;6.00;;;4.73;;
11887;SDS011;6003;42.756;23.130;2022-10-13T10:41:20;5.57;;;4.67;;
11887;SDS011;6003;42.756;23.130;2022-10-13T10:43:58;5.10;;;4.67;;
11887;SDS011;6003;42.756;23.130;2022-10-13T10:46:28;4.90;;;4.47;;
11887;SDS011;6003;42.756;23.130;2022-10-13T10:48:59;5.23;;;4.53;;
11887;SDS011;6003;42.756;23.130;2022-10-13T10:51:30;5.43;;;4.93;;
11887;SDS011;6003;42.756;23.130;2022-10-13T10:54:05;7.60;;;5.00;;
11887;SDS011;6003;42.756;23.130;2022-10-13T10:56:45;4.87;;;4.43;;
11887;SDS011;6003;42.756;23.130;2022-10-13T10:59:21;6.77;;;4.97;;
11887;SDS011;6003;42.756;23.130;2022-10-13T11:01:58;5.57;;;4.30;;
11887;SDS011;6003;42.756;23.130;2022-10-13T11:04:38;4.67;;;4.27;;
11887;SDS011;6003;42.756;23.130;2022-10-13T11:07:11;5.60;;;4.97;;
11887;SDS011;6003;42.756;23.130;2022-10-13T11:15:46;6.33;;;5.60;;
11887;SDS011;6003;42.756;23.130;2022-10-13T11:21:17;5.10;;;4.60;;
11887;SDS011;6003;42.756;23.130;2022-10-13T11:23:45;7.53;;;5.10;;
11887;SDS011;6003;42.756;23.130;2022-10-13T11:26:29;5.30;;;4.80;;
11887;SDS011;6003;42.756;23.130;2022-10-13T11:29:14;5.77;;;5.13;;
11887;SDS011;6003;42.756;23.130;2022-10-13T11:31:47;6.27;;;5.67;;
11887;SDS011;6003;42.756;23.130;2022-10-13T11:34:26;5.53;;;5.00;;
11887;SDS011;6003;42.756;23.130;2022-10-13T11:36:55;4.57;;;4.07;;
11887;SDS011;6003;42.756;23.130;2022-10-13T11:42:41;4.80;;;4.30;;
11887;SDS011;6003;42.756;23.130;2022-10-13T11:45:22;5.90;;;4.53;;
11887;SDS011;6003;42.756;23.130;2022-10-13T11:48:12;5.13;;;4.63;;
11887;SDS011;6003;42.756;23.130;2022-10-13T11:51:04;6.63;;;4.77;;
11887;SDS011;6003;42.756;23.130;2022-10-13T11:53:40;5.37;;;4.20;;
11887;SDS011;6003;42.756;23.130;2022-10-13T11:56:17;5.90;;;4.13;;
11887;SDS011;6003;42.756;23.130;2022-10-13T11:58:47;6.93;;;4.97;;
11887;SDS011;6003;42.756;23.130;2022-10-13T12:01:15;4.70;;;4.30;;
11887;SDS011;6003;42.756;23.130;2022-10-13T12:03:43;5.20;;;4.70;;
11887;SDS011;6003;42.756;23.130;2022-10-13T12:09:00;5.13;;;4.63;;
11887;SDS011;6003;42.756;23.130;2022-10-13T12:11:30;4.33;;;4.03;;
11887;SDS011;6003;42.756;23.130;2022-10-13T12:14:00;4.50;;;4.10;;
11887;SDS011;6003;42.756;23.130;2022-10-13T12:16:30;4.00;;;3.60;;
11887;SDS011;6003;42.756;23.130;2022-10-13T12:19:07;4.90;;;4.50;;
11887;SDS011;6003;42.756;23.130;2022-10-13T12:21:46;4.20;;;3.90;;
11887;SDS011;6003;42.756;23.130;2022-10-13T12:24:14;5.20;;;4.57;;
11887;SDS011;6003;42.756;23.130;2022-10-13T12:26:41;4.67;;;4.27;;
11887;SDS011;6003;42.756;23.130;2022-10-13T12:29:11;4.67;;;4.10;;
11887;SDS011;6003;42.756;23.130;2022-10-13T12:31:40;4.70;;;4.17;;
11887;SDS011;6003;42.756;23.130;2022-10-13T12:34:18;5.20;;;4.70;;
11887;SDS011;6003;42.756;23.130;2022-10-13T12:36:52;5.57;;;4.60;;
11887;SDS011;6003;42.756;23.130;2022-10-13T12:39:21;6.80;;;4.93;;
11887;SDS011;6003;42.756;23.130;2022-10-13T12:41:50;5.47;;;4.53;;
11887;SDS011;6003;42.756;23.130;2022-10-13T12:44:21;4.40;;;4.00;;
11887;SDS011;6003;42.756;23.130;2022-10-13T12:46:51;6.80;;;4.90;;
11887;SDS011;6003;42.756;23.130;2022-10-13T12:49:21;5.57;;;5.00;;
11887;SDS011;6003;42.756;23.130;2022-10-13T12:51:50;5.90;;;4.47;;
11887;SDS011;6003;42.756;23.130;2022-10-13T12:54:20;5.27;;;4.50;;
11887;SDS011;6003;42.756;23.130;2022-10-13T12:56:50;5.77;;;4.30;;
11887;SDS011;6003;42.756;23.130;2022-10-13T12:59:21;6.27;;;4.87;;
11887;SDS011;6003;42.756;23.130;2022-10-13T13:01:57;4.30;;;3.93;;
11887;SDS011;6003;42.756;23.130;2022-10-13T13:04:30;8.63;;;4.67;;
11887;SDS011;6003;42.756;23.130;2022-10-13T13:07:20;5.30;;;4.57;;
11887;SDS011;6003;42.756;23.130;2022-10-13T13:09:58;4.77;;;4.37;;
11887;SDS011;6003;42.756;23.130;2022-10-13T13:12:38;7.97;;;4.77;;
11887;SDS011;6003;42.756;23.130;2022-10-13T13:15:18;6.17;;;4.50;;
11887;SDS011;6003;42.756;23.130;2022-10-13T13:21:07;5.07;;;4.53;;
11887;SDS011;6003;42.756;23.130;2022-10-13T13:23:35;4.77;;;4.37;;
11887;SDS011;6003;42.756;23.130;2022-10-13T13:26:04;5.47;;;4.20;;
11887;SDS011;6003;42.756;23.130;2022-10-13T13:28:36;4.17;;;3.87;;
11887;SDS011;6003;42.756;23.130;2022-10-13T13:31:07;6.37;;;4.60;;
11887;SDS011;6003;42.756;23.130;2022-10-13T13:33:35;5.03;;;4.53;;
11887;SDS011;6003;42.756;23.130;2022-10-13T13:36:02;7.30;;;4.87;;
11887;SDS011;6003;42.756;23.130;2022-10-13T13:38:29;6.10;;;4.13;;
11887;SDS011;6003;42.756;23.130;2022-10-13T13:40:57;7.30;;;4.87;;
11887;SDS011;6003;42.756;23.130;2022-10-13T13:43:24;5.17;;;4.33;;
11887;SDS011;6003;42.756;23.130;2022-10-13T13:45:51;5.20;;;4.53;;
11887;SDS011;6003;42.756;23.130;2022-10-13T13:48:19;6.53;;;4.97;;
11887;SDS011;6003;42.756;23.130;2022-10-13T13:50:47;5.57;;;4.93;;
11887;SDS011;6003;42.756;23.130;2022-10-13T13:53:13;4.97;;;4.43;;
11887;SDS011;6003;42.756;23.130;2022-10-13T13:55:41;5.07;;;4.07;;
11887;SDS011;6003;42.756;23.130;2022-10-13T13:58:10;5.80;;;4.53;;
11887;SDS011;6003;42.756;23.130;2022-10-13T14:00:36;5.80;;;4.17;;
11887;SDS011;6003;42.756;23.130;2022-10-13T14:03:03;5.30;;;4.37;;
11887;SDS011;6003;42.756;23.130;2022-10-13T14:05:32;5.97;;;4.50;;
11887;SDS011;6003;42.756;23.130;2022-10-13T14:07:59;4.43;;;4.03;;
11887;SDS011;6003;42.756;23.130;2022-10-13T14:10:27;4.97;;;4.27;;
11887;SDS011;6003;42.756;23.130;2022-10-13T14:12:54;6.70;;;5.00;;
11887;SDS011;6003;42.756;23.130;2022-10-13T14:15:21;5.47;;;3.93;;
11887;SDS011;6003;42.756;23.130;2022-10-13T14:17:50;4.70;;;4.23;;
11887;SDS011;6003;42.756;23.130;2022-10-13T14:20:17;6.30;;;5.00;;
11887;SDS011;6003;42.756;23.130;2022-10-13T14:22:45;5.40;;;4.77;;
11887;SDS011;6003;42.756;23.130;2022-10-13T14:25:12;5.60;;;5.00;;
11887;SDS011;6003;42.756;23.130;2022-10-13T14:27:39;5.33;;;4.50;;
11887;SDS011;6003;42.756;23.130;2022-10-13T14:30:07;5.73;;;4.67;;
11887;SDS011;6003;42.756;23.130;2022-10-13T14:32:35;5.50;;;5.00;;
11887;SDS011;6003;42.756;23.130;2022-10-13T14:35:02;5.27;;;4.77;;
11887;SDS011;6003;42.756;23.130;2022-10-13T14:37:30;4.97;;;4.47;;
11887;SDS011;6003;42.756;23.130;2022-10-13T14:39:59;4.97;;;4.47;;
11887;SDS011;6003;42.756;23.130;2022-10-13T14:42:26;6.00;;;4.53;;
11887;SDS011;6003;42.756;23.130;2022-10-13T14:44:53;4.67;;;4.10;;
11887;SDS011;6003;42.756;23.130;2022-10-13T14:47:19;4.73;;;4.30;;
11887;SDS011;6003;42.756;23.130;2022-10-13T14:49:46;5.13;;;4.63;;
11887;SDS011;6003;42.756;23.130;2022-10-13T14:52:13;5.97;;;4.23;;
11887;SDS011;6003;42.756;23.130;2022-10-13T14:54:40;4.97;;;4.47;;
11887;SDS011;6003;42.756;23.130;2022-10-13T14:57:08;4.80;;;4.37;;
11887;SDS011;6003;42.756;23.130;2022-10-13T14:59:39;4.50;;;3.93;;
11887;SDS011;6003;42.756;23.130;2022-10-13T15:02:07;6.77;;;4.83;;
11887;SDS011;6003;42.756;23.130;2022-10-13T15:04:34;5.87;;;4.63;;
11887;SDS011;6003;42.756;23.130;2022-10-13T15:07:01;5.20;;;4.70;;
11887;SDS011;6003;42.756;23.130;2022-10-13T15:09:51;4.90;;;4.40;;
11887;SDS011;6003;42.756;23.130;2022-10-13T15:15:37;5.10;;;4.60;;
11887;SDS011;6003;42.756;23.130;2022-10-13T15:18:12;4.80;;;4.13;;
11887;SDS011;6003;42.756;23.130;2022-10-13T15:20:46;4.67;;;3.90;;
11887;SDS011;6003;42.756;23.130;2022-10-13T15:23:37;3.57;;;3.30;;
11887;SDS011;6003;42.756;23.130;2022-10-13T15:26:06;5.33;;;3.67;;
11887;SDS011;6003;42.756;23.130;2022-10-13T15:31:42;3.03;;;2.83;;
11887;SDS011;6003;42.756;23.130;2022-10-13T15:34:09;3.37;;;3.00;;
11887;SDS011;6003;42.756;23.130;2022-10-13T15:36:36;3.80;;;3.50;;
11887;SDS011;6003;42.756;23.130;2022-10-13T15:39:08;3.80;;;3.40;;
11887;SDS011;6003;42.756;23.130;2022-10-13T15:41:37;3.63;;;3.33;;
11887;SDS011;6003;42.756;23.130;2022-10-13T15:44:05;3.67;;;3.37;;
11887;SDS011;6003;42.756;23.130;2022-10-13T15:46:32;3.97;;;3.60;;